sensor_id;sensor_type;location;lat;lon;timestamp;P1;durP1;ratioP1;P2;durP2;ratioP2
66707;SDS011;53622;0.000;0.000;2022-12-17T00:01:38;3.47;;;2.83;;
66707;SDS011;53622;0.000;0.000;2022-12-17T00:04:27;5.35;;;3.17;;
66707;SDS011;53622;0.000;0.000;2022-12-17T00:07:13;3.72;;;3.30;;
66707;SDS011;53622;0.000;0.000;2022-12-17T00:10:00;5.97;;;2.95;;
66707;SDS011;53622;0.000;0.000;2022-12-17T00:12:47;2.97;;;2.67;;
66707;SDS011;53622;0.000;0.000;2022-12-17T00:15:34;3.55;;;3.08;;
66707;SDS011;53622;0.000;0.000;2022-12-17T00:18:22;3.17;;;2.90;;
66707;SDS011;53622;0.000;0.000;2022-12-17T00:21:10;3.88;;;2.78;;
66707;SDS011;53622;0.000;0.000;2022-12-17T00:23:56;3.88;;;3.22;;
66707;SDS011;53622;0.000;0.000;2022-12-17T00:26:42;3.47;;;3.17;;
66707;SDS011;53622;0.000;0.000;2022-12-17T00:29:29;3.40;;;3.10;;
66707;SDS011;53622;0.000;0.000;2022-12-17T00:32:17;4.00;;;3.57;;
66707;SDS011;53622;0.000;0.000;2022-12-17T00:35:04;3.30;;;3.00;;
66707;SDS011;53622;0.000;0.000;2022-12-17T00:37:53;5.78;;;2.92;;
66707;SDS011;53622;0.000;0.000;2022-12-17T00:40:40;3.75;;;3.33;;
66707;SDS011;53622;0.000;0.000;2022-12-17T00:43:27;3.63;;;3.33;;
66707;SDS011;53622;0.000;0.000;2022-12-17T00:46:14;3.50;;;3.20;;
66707;SDS011;53622;0.000;0.000;2022-12-17T00:49:00;4.25;;;3.80;;
66707;SDS011;53622;0.000;0.000;2022-12-17T00:51:47;4.35;;;3.95;;
66707;SDS011;53622;0.000;0.000;2022-12-17T00:54:35;4.00;;;3.60;;
66707;SDS011;53622;0.000;0.000;2022-12-17T00:57:22;4.20;;;3.53;;
66707;SDS011;53622;0.000;0.000;2022-12-17T01:00:10;4.15;;;3.63;;
66707;SDS011;53622;0.000;0.000;2022-12-17T01:03:05;4.10;;;3.55;;
66707;SDS011;53622;0.000;0.000;2022-12-17T01:05:54;4.53;;;3.53;;
66707;SDS011;53622;0.000;0.000;2022-12-17T01:08:41;4.03;;;3.63;;
66707;SDS011;53622;0.000;0.000;2022-12-17T01:11:29;3.58;;;3.28;;
66707;SDS011;53622;0.000;0.000;2022-12-17T01:14:16;4.20;;;3.80;;
66707;SDS011;53622;0.000;0.000;2022-12-17T01:17:02;4.25;;;3.63;;
66707;SDS011;53622;0.000;0.000;2022-12-17T01:19:49;3.40;;;3.10;;
66707;SDS011;53622;0.000;0.000;2022-12-17T01:22:36;3.85;;;3.50;;
66707;SDS011;53622;0.000;0.000;2022-12-17T01:25:23;4.40;;;3.45;;
66707;SDS011;53622;0.000;0.000;2022-12-17T01:28:11;4.60;;;3.90;;
66707;SDS011;53622;0.000;0.000;2022-12-17T01:30:58;4.07;;;3.70;;
66707;SDS011;53622;0.000;0.000;2022-12-17T01:33:45;4.50;;;3.70;;
66707;SDS011;53622;0.000;0.000;2022-12-17T01:36:31;3.35;;;3.05;;
66707;SDS011;53622;0.000;0.000;2022-12-17T01:39:18;3.65;;;3.35;;
66707;SDS011;53622;0.000;0.000;2022-12-17T01:42:01;3.90;;;3.53;;
66707;SDS011;53622;0.000;0.000;2022-12-17T01:44:51;4.32;;;3.78;;
66707;SDS011;53622;0.000;0.000;2022-12-17T01:47:39;3.88;;;3.53;;
66707;SDS011;53622;0.000;0.000;2022-12-17T01:50:30;3.50;;;3.20;;
66707;SDS011;53622;0.000;0.000;2022-12-17T01:53:20;4.07;;;3.67;;
66707;SDS011;53622;0.000;0.000;2022-12-17T01:56:08;4.05;;;3.65;;
66707;SDS011;53622;0.000;0.000;2022-12-17T01:58:56;4.07;;;3.67;;
66707;SDS011;53622;0.000;0.000;2022-12-17T02:01:45;4.85;;;4.28;;
66707;SDS011;53622;0.000;0.000;2022-12-17T02:04:32;4.65;;;3.95;;
66707;SDS011;53622;0.000;0.000;2022-12-17T02:07:32;3.90;;;3.50;;
66707;SDS011;53622;0.000;0.000;2022-12-17T02:10:28;4.30;;;3.90;;
66707;SDS011;53622;0.000;0.000;2022-12-17T02:13:33;4.25;;;3.70;;
66707;SDS011;53622;0.000;0.000;2022-12-17T02:16:25;3.65;;;3.35;;
66707;SDS011;53622;0.000;0.000;2022-12-17T02:19:24;3.92;;;3.47;;
66707;SDS011;53622;0.000;0.000;2022-12-17T02:22:22;3.75;;;3.45;;
66707;SDS011;53622;0.000;0.000;2022-12-17T02:25:14;3.85;;;3.55;;
66707;SDS011;53622;0.000;0.000;2022-12-17T02:28:08;3.92;;;3.53;;
66707;SDS011;53622;0.000;0.000;2022-12-17T02:30:56;4.28;;;3.88;;
66707;SDS011;53622;0.000;0.000;2022-12-17T02:33:43;4.18;;;3.78;;
66707;SDS011;53622;0.000;0.000;2022-12-17T02:36:33;3.63;;;3.33;;
66707;SDS011;53622;0.000;0.000;2022-12-17T02:39:20;4.30;;;3.90;;
66707;SDS011;53622;0.000;0.000;2022-12-17T02:42:07;4.30;;;3.90;;
66707;SDS011;53622;0.000;0.000;2022-12-17T02:44:55;4.22;;;3.83;;
66707;SDS011;53622;0.000;0.000;2022-12-17T02:47:43;4.40;;;4.00;;
66707;SDS011;53622;0.000;0.000;2022-12-17T02:50:30;3.75;;;3.45;;
66707;SDS011;53622;0.000;0.000;2022-12-17T02:53:18;4.40;;;4.00;;
66707;SDS011;53622;0.000;0.000;2022-12-17T02:56:05;4.33;;;3.93;;
66707;SDS011;53622;0.000;0.000;2022-12-17T02:58:51;4.20;;;3.88;;
66707;SDS011;53622;0.000;0.000;2022-12-17T03:01:39;3.77;;;3.47;;
66707;SDS011;53622;0.000;0.000;2022-12-17T03:04:26;4.30;;;3.90;;
66707;SDS011;53622;0.000;0.000;2022-12-17T03:07:13;4.23;;;3.83;;
66707;SDS011;53622;0.000;0.000;2022-12-17T03:10:00;4.45;;;3.88;;
66707;SDS011;53622;0.000;0.000;2022-12-17T03:12:46;4.20;;;3.80;;
66707;SDS011;53622;0.000;0.000;2022-12-17T03:15:32;4.33;;;3.93;;
66707;SDS011;53622;0.000;0.000;2022-12-17T03:18:20;3.60;;;3.30;;
66707;SDS011;53622;0.000;0.000;2022-12-17T03:21:06;4.40;;;4.00;;
66707;SDS011;53622;0.000;0.000;2022-12-17T03:23:53;3.93;;;3.60;;
66707;SDS011;53622;0.000;0.000;2022-12-17T03:26:36;3.97;;;3.60;;
66707;SDS011;53622;0.000;0.000;2022-12-17T03:29:23;4.10;;;3.72;;
66707;SDS011;53622;0.000;0.000;2022-12-17T03:32:10;4.20;;;3.77;;
66707;SDS011;53622;0.000;0.000;2022-12-17T03:34:58;4.53;;;4.13;;
66707;SDS011;53622;0.000;0.000;2022-12-17T03:37:44;4.07;;;3.77;;
66707;SDS011;53622;0.000;0.000;2022-12-17T03:40:31;3.50;;;3.20;;
66707;SDS011;53622;0.000;0.000;2022-12-17T03:43:18;3.72;;;3.33;;
66707;SDS011;53622;0.000;0.000;2022-12-17T03:46:05;4.23;;;3.83;;
66707;SDS011;53622;0.000;0.000;2022-12-17T03:48:52;4.53;;;4.13;;
66707;SDS011;53622;0.000;0.000;2022-12-17T03:51:39;4.05;;;3.60;;
66707;SDS011;53622;0.000;0.000;2022-12-17T03:54:25;3.70;;;3.40;;
66707;SDS011;53622;0.000;0.000;2022-12-17T03:57:12;4.78;;;3.90;;
66707;SDS011;53622;0.000;0.000;2022-12-17T03:59:59;4.13;;;3.73;;
66707;SDS011;53622;0.000;0.000;2022-12-17T04:02:45;4.30;;;3.90;;
66707;SDS011;53622;0.000;0.000;2022-12-17T04:05:32;4.43;;;4.03;;
66707;SDS011;53622;0.000;0.000;2022-12-17T04:08:20;4.35;;;3.95;;
66707;SDS011;53622;0.000;0.000;2022-12-17T04:11:06;4.05;;;3.65;;
66707;SDS011;53622;0.000;0.000;2022-12-17T04:13:52;4.28;;;3.88;;
66707;SDS011;53622;0.000;0.000;2022-12-17T04:16:39;3.93;;;3.53;;
66707;SDS011;53622;0.000;0.000;2022-12-17T04:19:26;4.20;;;3.80;;
66707;SDS011;53622;0.000;0.000;2022-12-17T04:22:13;4.22;;;3.83;;
66707;SDS011;53622;0.000;0.000;2022-12-17T04:25:01;3.93;;;3.53;;
66707;SDS011;53622;0.000;0.000;2022-12-17T04:27:48;4.20;;;3.80;;
66707;SDS011;53622;0.000;0.000;2022-12-17T04:30:35;4.00;;;3.60;;
66707;SDS011;53622;0.000;0.000;2022-12-17T04:33:22;4.47;;;4.00;;
66707;SDS011;53622;0.000;0.000;2022-12-17T04:36:08;4.27;;;3.87;;
66707;SDS011;53622;0.000;0.000;2022-12-17T04:38:55;4.20;;;3.80;;
66707;SDS011;53622;0.000;0.000;2022-12-17T04:41:43;4.83;;;4.40;;
66707;SDS011;53622;0.000;0.000;2022-12-17T04:44:30;4.10;;;3.72;;
66707;SDS011;53622;0.000;0.000;2022-12-17T04:47:17;4.00;;;3.70;;
66707;SDS011;53622;0.000;0.000;2022-12-17T04:50:04;4.60;;;4.10;;
66707;SDS011;53622;0.000;0.000;2022-12-17T04:52:58;3.65;;;3.35;;
66707;SDS011;53622;0.000;0.000;2022-12-17T04:55:45;4.10;;;3.70;;
66707;SDS011;53622;0.000;0.000;2022-12-17T04:58:36;4.47;;;4.00;;
66707;SDS011;53622;0.000;0.000;2022-12-17T05:01:22;4.63;;;3.80;;
66707;SDS011;53622;0.000;0.000;2022-12-17T05:04:09;4.00;;;3.70;;
66707;SDS011;53622;0.000;0.000;2022-12-17T05:06:56;4.00;;;3.70;;
66707;SDS011;53622;0.000;0.000;2022-12-17T05:09:43;4.10;;;3.70;;
66707;SDS011;53622;0.000;0.000;2022-12-17T05:12:30;4.30;;;3.90;;
66707;SDS011;53622;0.000;0.000;2022-12-17T05:15:19;4.20;;;3.80;;
66707;SDS011;53622;0.000;0.000;2022-12-17T05:18:06;4.20;;;3.80;;
66707;SDS011;53622;0.000;0.000;2022-12-17T05:20:53;4.00;;;3.63;;
66707;SDS011;53622;0.000;0.000;2022-12-17T05:23:40;3.80;;;3.47;;
66707;SDS011;53622;0.000;0.000;2022-12-17T05:26:28;3.93;;;3.63;;
66707;SDS011;53622;0.000;0.000;2022-12-17T05:29:14;4.10;;;3.70;;
66707;SDS011;53622;0.000;0.000;2022-12-17T05:31:59;4.43;;;4.03;;
66707;SDS011;53622;0.000;0.000;2022-12-17T05:34:45;4.67;;;4.20;;
66707;SDS011;53622;0.000;0.000;2022-12-17T05:37:32;4.40;;;4.00;;
66707;SDS011;53622;0.000;0.000;2022-12-17T05:40:19;4.23;;;3.80;;
66707;SDS011;53622;0.000;0.000;2022-12-17T05:43:07;4.27;;;3.87;;
66707;SDS011;53622;0.000;0.000;2022-12-17T05:45:59;4.95;;;4.20;;
66707;SDS011;53622;0.000;0.000;2022-12-17T05:48:48;3.97;;;3.57;;
66707;SDS011;53622;0.000;0.000;2022-12-17T05:51:34;4.50;;;4.10;;
66707;SDS011;53622;0.000;0.000;2022-12-17T05:54:21;4.37;;;3.90;;
66707;SDS011;53622;0.000;0.000;2022-12-17T05:57:08;4.60;;;4.20;;
66707;SDS011;53622;0.000;0.000;2022-12-17T05:59:54;4.45;;;4.05;;
66707;SDS011;53622;0.000;0.000;2022-12-17T06:02:41;4.20;;;3.80;;
66707;SDS011;53622;0.000;0.000;2022-12-17T06:05:30;4.30;;;3.90;;
66707;SDS011;53622;0.000;0.000;2022-12-17T06:08:16;4.47;;;4.07;;
66707;SDS011;53622;0.000;0.000;2022-12-17T06:11:03;4.47;;;4.07;;
66707;SDS011;53622;0.000;0.000;2022-12-17T06:13:50;4.20;;;3.80;;
66707;SDS011;53622;0.000;0.000;2022-12-17T06:16:37;4.53;;;4.10;;
66707;SDS011;53622;0.000;0.000;2022-12-17T06:19:24;4.27;;;3.93;;
66707;SDS011;53622;0.000;0.000;2022-12-17T06:22:12;4.47;;;4.07;;
66707;SDS011;53622;0.000;0.000;2022-12-17T06:24:58;4.60;;;4.20;;
66707;SDS011;53622;0.000;0.000;2022-12-17T06:27:45;4.27;;;3.87;;
66707;SDS011;53622;0.000;0.000;2022-12-17T06:30:32;7.30;;;4.10;;
66707;SDS011;53622;0.000;0.000;2022-12-17T06:33:18;5.50;;;4.13;;
66707;SDS011;53622;0.000;0.000;2022-12-17T06:36:06;4.57;;;4.17;;
66707;SDS011;53622;0.000;0.000;2022-12-17T06:38:54;4.50;;;4.10;;
66707;SDS011;53622;0.000;0.000;2022-12-17T06:41:41;9.30;;;4.67;;
66707;SDS011;53622;0.000;0.000;2022-12-17T06:44:30;5.80;;;4.50;;
66707;SDS011;53622;0.000;0.000;2022-12-17T06:47:17;8.80;;;5.80;;
66707;SDS011;53622;0.000;0.000;2022-12-17T06:50:04;5.80;;;4.17;;
66707;SDS011;53622;0.000;0.000;2022-12-17T06:53:04;5.10;;;4.33;;
66707;SDS011;53622;0.000;0.000;2022-12-17T06:55:55;4.80;;;4.30;;
66707;SDS011;53622;0.000;0.000;2022-12-17T06:58:42;7.17;;;4.43;;
66707;SDS011;53622;0.000;0.000;2022-12-17T07:01:29;7.40;;;4.20;;
66707;SDS011;53622;0.000;0.000;2022-12-17T07:04:16;7.20;;;4.40;;
66707;SDS011;53622;0.000;0.000;2022-12-17T07:07:03;4.67;;;4.23;;
66707;SDS011;53622;0.000;0.000;2022-12-17T07:10:01;10.07;;;5.00;;
66707;SDS011;53622;0.000;0.000;2022-12-17T07:12:50;9.90;;;7.28;;
66707;SDS011;53622;0.000;0.000;2022-12-17T07:15:36;12.87;;;6.37;;
66707;SDS011;53622;0.000;0.000;2022-12-17T07:18:23;12.63;;;6.23;;
66707;SDS011;53622;0.000;0.000;2022-12-17T07:21:10;11.73;;;5.90;;
66707;SDS011;53622;0.000;0.000;2022-12-17T07:23:57;9.77;;;5.60;;
66707;SDS011;53622;0.000;0.000;2022-12-17T07:26:44;9.35;;;5.35;;
66707;SDS011;53622;0.000;0.000;2022-12-17T07:29:32;34.23;;;30.67;;
66707;SDS011;53622;0.000;0.000;2022-12-17T07:32:19;33.45;;;29.98;;
66707;SDS011;53622;0.000;0.000;2022-12-17T07:35:06;16.48;;;14.80;;
66707;SDS011;53622;0.000;0.000;2022-12-17T07:37:57;14.30;;;12.85;;
66707;SDS011;53622;0.000;0.000;2022-12-17T07:40:44;16.23;;;13.17;;
66707;SDS011;53622;0.000;0.000;2022-12-17T07:43:31;14.43;;;13.13;;
66707;SDS011;53622;0.000;0.000;2022-12-17T07:46:21;12.88;;;11.43;;
66707;SDS011;53622;0.000;0.000;2022-12-17T07:49:08;12.57;;;10.18;;
66707;SDS011;53622;0.000;0.000;2022-12-17T07:51:54;13.48;;;10.30;;
66707;SDS011;53622;0.000;0.000;2022-12-17T07:54:44;12.43;;;10.20;;
66707;SDS011;53622;0.000;0.000;2022-12-17T07:57:31;11.03;;;9.87;;
66707;SDS011;53622;0.000;0.000;2022-12-17T08:00:18;11.90;;;10.02;;
66707;SDS011;53622;0.000;0.000;2022-12-17T08:03:17;10.88;;;9.73;;
66707;SDS011;53622;0.000;0.000;2022-12-17T08:06:04;8.82;;;7.95;;
66707;SDS011;53622;0.000;0.000;2022-12-17T08:08:51;12.13;;;8.50;;
66707;SDS011;53622;0.000;0.000;2022-12-17T08:11:38;8.63;;;7.82;;
66707;SDS011;53622;0.000;0.000;2022-12-17T08:14:25;9.35;;;8.18;;
66707;SDS011;53622;0.000;0.000;2022-12-17T08:17:12;9.77;;;7.93;;
66707;SDS011;53622;0.000;0.000;2022-12-17T08:20:00;7.78;;;7.03;;
66707;SDS011;53622;0.000;0.000;2022-12-17T08:22:47;8.48;;;7.60;;
66707;SDS011;53622;0.000;0.000;2022-12-17T08:25:34;8.40;;;6.72;;
66707;SDS011;53622;0.000;0.000;2022-12-17T08:28:21;8.40;;;6.72;;
66707;SDS011;53622;0.000;0.000;2022-12-17T08:31:17;142.70;;;90.82;;
66707;SDS011;53622;0.000;0.000;2022-12-17T08:34:04;27.55;;;18.42;;
66707;SDS011;53622;0.000;0.000;2022-12-17T08:36:52;22.63;;;15.57;;
66707;SDS011;53622;0.000;0.000;2022-12-17T08:39:39;21.90;;;14.57;;
66707;SDS011;53622;0.000;0.000;2022-12-17T08:42:25;22.58;;;16.30;;
66707;SDS011;53622;0.000;0.000;2022-12-17T08:45:12;24.80;;;17.60;;
66707;SDS011;53622;0.000;0.000;2022-12-17T08:48:03;25.45;;;18.10;;
66707;SDS011;53622;0.000;0.000;2022-12-17T08:50:50;25.77;;;18.40;;
66707;SDS011;53622;0.000;0.000;2022-12-17T08:53:38;23.42;;;16.08;;
66707;SDS011;53622;0.000;0.000;2022-12-17T08:56:25;20.15;;;15.30;;
66707;SDS011;53622;0.000;0.000;2022-12-17T08:59:26;28.85;;;14.65;;
66707;SDS011;53622;0.000;0.000;2022-12-17T09:02:13;26.23;;;14.05;;
66707;SDS011;53622;0.000;0.000;2022-12-17T09:05:01;20.80;;;13.13;;
66707;SDS011;53622;0.000;0.000;2022-12-17T09:07:47;27.92;;;12.75;;
66707;SDS011;53622;0.000;0.000;2022-12-17T09:10:35;36.55;;;12.55;;
66707;SDS011;53622;0.000;0.000;2022-12-17T09:13:22;31.13;;;12.13;;
66707;SDS011;53622;0.000;0.000;2022-12-17T09:16:09;27.27;;;11.73;;
66707;SDS011;53622;0.000;0.000;2022-12-17T09:18:56;26.17;;;12.13;;
66707;SDS011;53622;0.000;0.000;2022-12-17T09:21:43;23.92;;;11.23;;
66707;SDS011;53622;0.000;0.000;2022-12-17T09:24:29;24.33;;;9.65;;
66707;SDS011;53622;0.000;0.000;2022-12-17T09:27:17;21.27;;;11.02;;
66707;SDS011;53622;0.000;0.000;2022-12-17T09:30:03;19.52;;;10.35;;
66707;SDS011;53622;0.000;0.000;2022-12-17T09:32:51;14.75;;;9.13;;
66707;SDS011;53622;0.000;0.000;2022-12-17T09:35:38;15.38;;;9.45;;
66707;SDS011;53622;0.000;0.000;2022-12-17T09:38:25;14.40;;;8.95;;
66707;SDS011;53622;0.000;0.000;2022-12-17T09:41:14;13.45;;;9.23;;
66707;SDS011;53622;0.000;0.000;2022-12-17T09:44:12;15.30;;;8.45;;
66707;SDS011;53622;0.000;0.000;2022-12-17T09:47:05;12.30;;;8.30;;
66707;SDS011;53622;0.000;0.000;2022-12-17T09:50:04;8.45;;;7.13;;
66707;SDS011;53622;0.000;0.000;2022-12-17T09:52:57;15.23;;;8.18;;
66707;SDS011;53622;0.000;0.000;2022-12-17T09:55:46;10.95;;;7.53;;
66707;SDS011;53622;0.000;0.000;2022-12-17T09:58:35;10.85;;;7.10;;
66707;SDS011;53622;0.000;0.000;2022-12-17T10:01:25;10.98;;;6.53;;
66707;SDS011;53622;0.000;0.000;2022-12-17T10:04:18;26.80;;;7.03;;
66707;SDS011;53622;0.000;0.000;2022-12-17T10:07:10;23.30;;;7.25;;
66707;SDS011;53622;0.000;0.000;2022-12-17T10:10:09;20.45;;;7.38;;
66707;SDS011;53622;0.000;0.000;2022-12-17T10:13:06;20.55;;;7.18;;
66707;SDS011;53622;0.000;0.000;2022-12-17T10:15:56;20.55;;;7.95;;
66707;SDS011;53622;0.000;0.000;2022-12-17T10:18:45;26.23;;;8.52;;
66707;SDS011;53622;0.000;0.000;2022-12-17T10:21:34;16.23;;;7.63;;
66707;SDS011;53622;0.000;0.000;2022-12-17T10:24:26;17.65;;;8.13;;
66707;SDS011;53622;0.000;0.000;2022-12-17T10:27:14;19.55;;;7.57;;
66707;SDS011;53622;0.000;0.000;2022-12-17T10:30:13;16.30;;;7.20;;
66707;SDS011;53622;0.000;0.000;2022-12-17T10:33:03;18.77;;;7.78;;
66707;SDS011;53622;0.000;0.000;2022-12-17T10:35:52;14.20;;;6.68;;
66707;SDS011;53622;0.000;0.000;2022-12-17T10:38:38;15.60;;;6.85;;
66707;SDS011;53622;0.000;0.000;2022-12-17T10:41:26;15.45;;;6.15;;
66707;SDS011;53622;0.000;0.000;2022-12-17T10:44:21;12.85;;;6.93;;
66707;SDS011;53622;0.000;0.000;2022-12-17T10:47:11;10.68;;;6.18;;
66707;SDS011;53622;0.000;0.000;2022-12-17T10:49:59;14.88;;;6.30;;
66707;SDS011;53622;0.000;0.000;2022-12-17T10:52:48;17.13;;;7.07;;
66707;SDS011;53622;0.000;0.000;2022-12-17T10:55:44;14.35;;;5.97;;
66707;SDS011;53622;0.000;0.000;2022-12-17T10:58:33;12.02;;;6.30;;
66707;SDS011;53622;0.000;0.000;2022-12-17T11:01:20;14.23;;;5.82;;
66707;SDS011;53622;0.000;0.000;2022-12-17T11:04:20;12.60;;;5.72;;
66707;SDS011;53622;0.000;0.000;2022-12-17T11:07:11;9.82;;;5.80;;
66707;SDS011;53622;0.000;0.000;2022-12-17T11:10:02;17.10;;;6.15;;
66707;SDS011;53622;0.000;0.000;2022-12-17T11:12:51;8.45;;;4.68;;
66707;SDS011;53622;0.000;0.000;2022-12-17T11:15:42;7.00;;;4.93;;
66707;SDS011;53622;0.000;0.000;2022-12-17T11:18:34;13.43;;;6.07;;
66707;SDS011;53622;0.000;0.000;2022-12-17T11:21:42;11.07;;;5.18;;
66707;SDS011;53622;0.000;0.000;2022-12-17T11:24:51;15.38;;;5.50;;
66707;SDS011;53622;0.000;0.000;2022-12-17T11:27:52;10.07;;;5.18;;
66707;SDS011;53622;0.000;0.000;2022-12-17T11:30:45;9.50;;;4.97;;
66707;SDS011;53622;0.000;0.000;2022-12-17T11:33:51;16.70;;;5.72;;
66707;SDS011;53622;0.000;0.000;2022-12-17T11:36:43;13.73;;;5.30;;
66707;SDS011;53622;0.000;0.000;2022-12-17T11:39:38;9.85;;;5.57;;
66707;SDS011;53622;0.000;0.000;2022-12-17T11:42:31;11.70;;;5.53;;
66707;SDS011;53622;0.000;0.000;2022-12-17T11:45:25;11.88;;;5.45;;
66707;SDS011;53622;0.000;0.000;2022-12-17T11:48:19;10.45;;;5.70;;
66707;SDS011;53622;0.000;0.000;2022-12-17T11:51:11;9.50;;;4.75;;
66707;SDS011;53622;0.000;0.000;2022-12-17T11:54:05;14.20;;;4.95;;
66707;SDS011;53622;0.000;0.000;2022-12-17T11:57:03;9.02;;;4.43;;
66707;SDS011;53622;0.000;0.000;2022-12-17T12:00:00;8.77;;;4.07;;
66707;SDS011;53622;0.000;0.000;2022-12-17T12:02:54;6.30;;;4.15;;
66707;SDS011;53622;0.000;0.000;2022-12-17T12:05:48;8.20;;;3.53;;
66707;SDS011;53622;0.000;0.000;2022-12-17T12:08:41;6.45;;;3.55;;
66707;SDS011;53622;0.000;0.000;2022-12-17T12:11:47;6.28;;;4.25;;
66707;SDS011;53622;0.000;0.000;2022-12-17T12:14:40;5.05;;;4.00;;
66707;SDS011;53622;0.000;0.000;2022-12-17T12:17:37;7.88;;;3.80;;
66707;SDS011;53622;0.000;0.000;2022-12-17T12:20:41;6.78;;;3.80;;
66707;SDS011;53622;0.000;0.000;2022-12-17T12:23:39;7.60;;;4.22;;
66707;SDS011;53622;0.000;0.000;2022-12-17T12:26:37;4.72;;;3.65;;
66707;SDS011;53622;0.000;0.000;2022-12-17T12:29:33;6.22;;;3.78;;
66707;SDS011;53622;0.000;0.000;2022-12-17T12:32:29;7.05;;;3.45;;
66707;SDS011;53622;0.000;0.000;2022-12-17T12:35:24;4.30;;;3.83;;
66707;SDS011;53622;0.000;0.000;2022-12-17T12:38:16;5.35;;;3.67;;
66707;SDS011;53622;0.000;0.000;2022-12-17T12:41:13;6.47;;;3.15;;
66707;SDS011;53622;0.000;0.000;2022-12-17T12:44:07;12.50;;;3.67;;
66707;SDS011;53622;0.000;0.000;2022-12-17T12:47:06;5.03;;;3.90;;
66707;SDS011;53622;0.000;0.000;2022-12-17T12:49:58;4.43;;;3.17;;
66707;SDS011;53622;0.000;0.000;2022-12-17T12:52:49;6.07;;;3.00;;
66707;SDS011;53622;0.000;0.000;2022-12-17T12:55:38;6.55;;;3.25;;
66707;SDS011;53622;0.000;0.000;2022-12-17T12:58:28;5.22;;;3.40;;
66707;SDS011;53622;0.000;0.000;2022-12-17T13:01:17;4.90;;;3.45;;
66707;SDS011;53622;0.000;0.000;2022-12-17T13:04:14;3.53;;;3.03;;
66707;SDS011;53622;0.000;0.000;2022-12-17T13:07:18;9.07;;;3.13;;
66707;SDS011;53622;0.000;0.000;2022-12-17T13:09:50;4.88;;;3.55;;
66707;SDS011;53622;0.000;0.000;2022-12-17T13:12:32;5.82;;;3.65;;
66707;SDS011;53622;0.000;0.000;2022-12-17T13:18:03;4.55;;;3.20;;
66707;SDS011;53622;0.000;0.000;2022-12-17T13:20:54;5.78;;;3.10;;
66707;SDS011;53622;0.000;0.000;2022-12-17T13:23:28;5.05;;;2.95;;
66707;SDS011;53622;0.000;0.000;2022-12-17T13:26:09;4.57;;;2.80;;
66707;SDS011;53622;0.000;0.000;2022-12-17T13:28:48;8.60;;;2.72;;
66707;SDS011;53622;0.000;0.000;2022-12-17T13:31:27;5.18;;;2.63;;
66707;SDS011;53622;0.000;0.000;2022-12-17T13:34:03;4.65;;;3.13;;
66707;SDS011;53622;0.000;0.000;2022-12-17T13:36:41;5.85;;;2.92;;
66707;SDS011;53622;0.000;0.000;2022-12-17T13:42:14;4.32;;;2.88;;
66707;SDS011;53622;0.000;0.000;2022-12-17T13:44:47;17.05;;;3.03;;
66707;SDS011;53622;0.000;0.000;2022-12-17T13:47:18;6.47;;;3.28;;
66707;SDS011;53622;0.000;0.000;2022-12-17T13:49:49;12.80;;;6.20;;
66707;SDS011;53622;0.000;0.000;2022-12-17T13:52:39;10.00;;;3.70;;
66707;SDS011;53622;0.000;0.000;2022-12-17T13:55:09;4.45;;;3.95;;
66707;SDS011;53622;0.000;0.000;2022-12-17T13:57:47;5.82;;;3.75;;
66707;SDS011;53622;0.000;0.000;2022-12-17T14:00:20;4.55;;;3.47;;
66707;SDS011;53622;0.000;0.000;2022-12-17T14:02:52;4.47;;;3.25;;
66707;SDS011;53622;0.000;0.000;2022-12-17T14:05:26;3.90;;;2.97;;
66707;SDS011;53622;0.000;0.000;2022-12-17T14:07:59;6.70;;;3.10;;
66707;SDS011;53622;0.000;0.000;2022-12-17T14:10:31;4.07;;;2.78;;
66707;SDS011;53622;0.000;0.000;2022-12-17T14:13:03;3.15;;;2.85;;
66707;SDS011;53622;0.000;0.000;2022-12-17T14:15:35;5.00;;;2.70;;
66707;SDS011;53622;0.000;0.000;2022-12-17T14:18:05;3.80;;;2.75;;
66707;SDS011;53622;0.000;0.000;2022-12-17T14:20:40;4.47;;;2.88;;
66707;SDS011;53622;0.000;0.000;2022-12-17T14:23:11;3.42;;;2.25;;
66707;SDS011;53622;0.000;0.000;2022-12-17T14:25:45;4.90;;;2.78;;
66707;SDS011;53622;0.000;0.000;2022-12-17T14:28:20;4.18;;;3.13;;
66707;SDS011;53622;0.000;0.000;2022-12-17T14:31:01;4.07;;;2.50;;
66707;SDS011;53622;0.000;0.000;2022-12-17T14:33:59;2.90;;;2.58;;
66707;SDS011;53622;0.000;0.000;2022-12-17T14:36:34;3.85;;;2.88;;
66707;SDS011;53622;0.000;0.000;2022-12-17T14:39:13;8.57;;;2.85;;
66707;SDS011;53622;0.000;0.000;2022-12-17T14:41:44;5.00;;;2.80;;
66707;SDS011;53622;0.000;0.000;2022-12-17T14:44:31;4.50;;;2.92;;
66707;SDS011;53622;0.000;0.000;2022-12-17T14:47:10;4.18;;;2.30;;
66707;SDS011;53622;0.000;0.000;2022-12-17T14:49:55;4.35;;;2.88;;
66707;SDS011;53622;0.000;0.000;2022-12-17T14:52:38;5.82;;;2.63;;
66707;SDS011;53622;0.000;0.000;2022-12-17T14:58:22;5.93;;;2.88;;
66707;SDS011;53622;0.000;0.000;2022-12-17T15:00:54;3.67;;;2.80;;
66707;SDS011;53622;0.000;0.000;2022-12-17T15:03:30;2.63;;;2.38;;
66707;SDS011;53622;0.000;0.000;2022-12-17T15:06:01;2.90;;;2.40;;
66707;SDS011;53622;0.000;0.000;2022-12-17T15:08:33;4.13;;;2.65;;
66707;SDS011;53622;0.000;0.000;2022-12-17T15:11:04;4.07;;;2.55;;
66707;SDS011;53622;0.000;0.000;2022-12-17T15:13:34;4.80;;;2.63;;
66707;SDS011;53622;0.000;0.000;2022-12-17T15:16:03;2.97;;;2.55;;
66707;SDS011;53622;0.000;0.000;2022-12-17T15:18:34;5.28;;;2.63;;
66707;SDS011;53622;0.000;0.000;2022-12-17T15:21:04;2.85;;;2.40;;
66707;SDS011;53622;0.000;0.000;2022-12-17T15:23:36;2.65;;;2.42;;
66707;SDS011;53622;0.000;0.000;2022-12-17T15:26:09;3.95;;;2.72;;
66707;SDS011;53622;0.000;0.000;2022-12-17T15:28:40;3.75;;;2.60;;
66707;SDS011;53622;0.000;0.000;2022-12-17T15:31:10;3.45;;;2.60;;
66707;SDS011;53622;0.000;0.000;2022-12-17T15:33:42;3.13;;;2.45;;
66707;SDS011;53622;0.000;0.000;2022-12-17T15:36:12;2.60;;;2.40;;
66707;SDS011;53622;0.000;0.000;2022-12-17T15:38:41;3.53;;;2.60;;
66707;SDS011;53622;0.000;0.000;2022-12-17T15:41:10;2.80;;;2.53;;
66707;SDS011;53622;0.000;0.000;2022-12-17T15:43:57;3.63;;;2.55;;
66707;SDS011;53622;0.000;0.000;2022-12-17T15:46:26;2.97;;;2.40;;
66707;SDS011;53622;0.000;0.000;2022-12-17T15:48:58;2.47;;;2.28;;
66707;SDS011;53622;0.000;0.000;2022-12-17T15:51:27;3.55;;;2.75;;
66707;SDS011;53622;0.000;0.000;2022-12-17T15:53:57;2.85;;;2.65;;
66707;SDS011;53622;0.000;0.000;2022-12-17T15:56:26;2.70;;;2.13;;
66707;SDS011;53622;0.000;0.000;2022-12-17T15:58:56;2.72;;;2.53;;
66707;SDS011;53622;0.000;0.000;2022-12-17T16:01:26;4.13;;;2.28;;
66707;SDS011;53622;0.000;0.000;2022-12-17T16:03:57;2.60;;;2.35;;
66707;SDS011;53622;0.000;0.000;2022-12-17T16:06:27;2.90;;;2.20;;
66707;SDS011;53622;0.000;0.000;2022-12-17T16:08:56;2.42;;;2.22;;
66707;SDS011;53622;0.000;0.000;2022-12-17T16:11:26;13.40;;;11.38;;
66707;SDS011;53622;0.000;0.000;2022-12-17T16:13:55;24.17;;;19.73;;
66707;SDS011;53622;0.000;0.000;2022-12-17T16:16:25;23.58;;;17.17;;
66707;SDS011;53622;0.000;0.000;2022-12-17T16:18:54;41.13;;;31.98;;
66707;SDS011;53622;0.000;0.000;2022-12-17T16:21:25;56.45;;;42.40;;
66707;SDS011;53622;0.000;0.000;2022-12-17T16:23:54;52.45;;;42.45;;
66707;SDS011;53622;0.000;0.000;2022-12-17T16:26:25;42.72;;;33.42;;
66707;SDS011;53622;0.000;0.000;2022-12-17T16:28:55;43.30;;;34.75;;
66707;SDS011;53622;0.000;0.000;2022-12-17T16:31:25;43.97;;;33.22;;
66707;SDS011;53622;0.000;0.000;2022-12-17T16:33:54;37.83;;;28.67;;
66707;SDS011;53622;0.000;0.000;2022-12-17T16:36:25;33.75;;;26.83;;
66707;SDS011;53622;0.000;0.000;2022-12-17T16:38:54;39.75;;;29.30;;
66707;SDS011;53622;0.000;0.000;2022-12-17T16:41:24;33.42;;;25.52;;
66707;SDS011;53622;0.000;0.000;2022-12-17T16:43:53;32.50;;;17.70;;
66707;SDS011;53622;0.000;0.000;2022-12-17T16:46:24;49.13;;;21.35;;
66707;SDS011;53622;0.000;0.000;2022-12-17T16:48:57;28.90;;;18.90;;
66707;SDS011;53622;0.000;0.000;2022-12-17T16:51:33;30.23;;;20.23;;
66707;SDS011;53622;0.000;0.000;2022-12-17T16:54:10;35.50;;;24.90;;
66707;SDS011;53622;0.000;0.000;2022-12-17T16:56:41;30.02;;;21.98;;